This is the latest recevied weather packets stored in our database for station/object EA7RX-3. If no packets are shown the sender has not sent any weather packets the latest 10 day(s).
| Time | Temp. | Humidity | Pressure | Rain* | Wind** | Luminosity | Snow |
|---|---|---|---|---|---|---|---|
| 1777757901 | 16.67° C | 90% | 1013 hPa | - | - | - | - |
| 1777757301 | 16.67° C | 88% | 1013 hPa | - | - | - | - |
| 1777756702 | 16.67° C | 88% | 1013 hPa | - | - | - | - |
| 1777756102 | 17.22° C | 84% | 1012.8 hPa | - | - | - | - |
| 1777755502 | 17.22° C | 85% | 1012.7 hPa | - | - | - | - |
| 1777754901 | 17.78° C | 81% | 1012.3 hPa | - | - | - | - |
| 1777754301 | 18.33° C | 77% | 1012 hPa | - | - | - | - |
| 1777753701 | 17.78° C | 77% | 1011.8 hPa | - | - | - | - |
| 1777753101 | 18.33° C | 75% | 1011.8 hPa | - | - | - | - |
| 1777752501 | 18.89° C | 73% | 1011.6 hPa | - | - | - | - |
| 1777751901 | 18.89° C | 71% | 1011.5 hPa | - | - | - | - |
| 1777751301 | 18.89° C | 70% | 1011.4 hPa | - | - | - | - |
| 1777750701 | 19.44° C | 67% | 1011.2 hPa | - | - | - | - |
| 1777750101 | 19.44° C | 64% | 1011.1 hPa | - | - | - | - |
| 1777749501 | 19.44° C | 61% | 1011.1 hPa | - | - | - | - |
| 1777748901 | 19.44° C | 58% | 1011 hPa | - | - | - | - |
| 1777748301 | 20° C | 56% | 1010.7 hPa | - | - | - | - |
| 1777747701 | 21.11° C | 53% | 1010.4 hPa | - | - | - | - |
| 1777747101 | 21.11° C | 52% | 1010.5 hPa | - | - | - | - |
| 1777746501 | 22.78° C | 47% | 1010 hPa | - | - | - | - |
| 1777745901 | 26.11° C | 40% | 1009.1 hPa | - | - | - | - |
| 1777745301 | 29.44° C | 36% | 1008.4 hPa | - | - | - | - |
| 1777744701 | 31.11° C | 34% | 1008.1 hPa | - | - | - | - |
| 1777744101 | 30.56° C | 35% | 1008.1 hPa | - | - | - | - |
| 1777743501 | 30° C | 36% | 1008.3 hPa | - | - | - | - |
* Rain since midnight (hover to see other rain measurements)
** Current wind speed in m/s (hover to see current wind gust speed)